Time;durP1;ratioP1;P1;durP2;ratioP2;P2;SDS_P1;SDS_P2;PMS_P1;PMS_P2;Temp;Humidity;BMP_temperature;BMP_pressure;BME280_temperature;BME280_humidity;BME280_pressure;Samples;Min_cycle;Max_cycle;Signal;HPM_P1;HPM_P2
2022/09/17 00:00:45;;;;;;;16.75;3.33;;;12.40;99.90;;;;;;4991938;28;20045;-78
2022/09/17 00:03:11;;;;;;;21.23;3.33;;;12.40;99.90;;;;;;4989466;28;20569;-77
2022/09/17 00:05:37;;;;;;;12.90;2.63;;;12.40;99.90;;;;;;4994903;28;20113;-79
2022/09/17 00:08:08;;;;;;;14.80;2.78;;;12.40;99.90;;;;;;4978634;28;20034;-79
2022/09/17 00:10:38;;;;;;;17.58;3.50;;;12.40;99.90;;;;;;4999371;28;20041;-79
2022/09/17 00:13:04;;;;;;;16.40;3.60;;;12.40;99.90;;;;;;5013825;28;20443;-78
2022/09/17 00:15:30;;;;;;;15.50;3.20;;;12.40;99.90;;;;;;4992772;28;20042;-78
2022/09/17 00:17:57;;;;;;;16.73;2.88;;;12.40;99.90;;;;;;4978253;28;20050;-78
2022/09/17 00:20:26;;;;;;;16.83;3.15;;;12.40;99.90;;;;;;5004729;28;20137;-78
2022/09/17 00:22:52;;;;;;;15.38;3.10;;;12.40;99.90;;;;;;5002120;28;20034;-78
2022/09/17 00:25:18;;;;;;;19.88;2.58;;;12.40;99.90;;;;;;5004037;28;20044;-78
2022/09/17 00:27:44;;;;;;;22.15;4.35;;;12.40;99.90;;;;;;4993454;28;20041;-78
2022/09/17 00:30:11;;;;;;;22.30;3.03;;;12.40;99.90;;;;;;5004676;28;20525;-77
2022/09/17 00:32:37;;;;;;;17.90;3.15;;;12.50;99.90;;;;;;4981272;28;20422;-77
2022/09/17 00:35:03;;;;;;;12.75;3.42;;;12.40;99.90;;;;;;5006319;28;20124;-78
2022/09/17 00:37:30;;;;;;;21.63;3.60;;;12.40;99.90;;;;;;4974119;28;20042;-78
2022/09/17 00:39:55;;;;;;;19.13;2.90;;;12.40;99.90;;;;;;4972635;28;20054;-78
2022/09/17 00:42:22;;;;;;;13.48;2.67;;;12.40;99.90;;;;;;5003955;28;20046;-78
2022/09/17 00:44:53;;;;;;;13.57;2.58;;;12.50;99.90;;;;;;5005354;28;20033;-77
2022/09/17 00:47:36;;;;;;;15.98;2.97;;;12.50;99.90;;;;;;5007426;28;20076;-79
2022/09/17 00:50:31;;;;;;;11.95;2.53;;;12.40;99.90;;;;;;4994358;28;20449;-77
2022/09/17 00:53:19;;;;;;;11.13;2.10;;;12.30;99.90;;;;;;4997230;28;20469;-78
2022/09/17 00:55:50;;;;;;;15.55;2.50;;;12.30;99.90;;;;;;5004020;28;20540;-77
2022/09/17 00:58:19;;;;;;;13.05;2.35;;;12.20;99.90;;;;;;4994076;28;20516;-78
2022/09/17 01:00:46;;;;;;;12.73;2.40;;;12.10;99.90;;;;;;5002186;28;20049;-78
2022/09/17 01:03:12;;;;;;;14.68;2.63;;;12.10;99.90;;;;;;4989725;28;20050;-78
2022/09/17 01:05:52;;;;;;;13.60;2.33;;;12.10;99.90;;;;;;5001704;28;20408;-79
2022/09/17 01:08:27;;;;;;;11.27;2.08;;;12.10;99.90;;;;;;5010041;28;20045;-78
2022/09/17 01:11:24;;;;;;;13.73;3.15;;;12.10;99.90;;;;;;5007914;28;20096;-78
2022/09/17 01:13:56;;;;;;;13.90;2.78;;;11.80;99.90;;;;;;5009141;28;20469;-78
2022/09/17 01:16:35;;;;;;;19.83;3.20;;;12.20;99.90;;;;;;5012932;28;20412;-79
2022/09/17 01:19:15;;;;;;;15.38;2.80;;;12.20;99.90;;;;;;5006827;28;20080;-79
2022/09/17 01:22:06;;;;;;;12.35;2.58;;;12.20;99.90;;;;;;5007285;28;20041;-79
2022/09/17 01:24:38;;;;;;;17.80;2.80;;;12.30;99.90;;;;;;4988960;28;20064;-78
2022/09/17 01:27:28;;;;;;;11.30;2.80;;;12.20;99.90;;;;;;5001789;28;20056;-78
2022/09/17 01:30:37;;;;;;;13.10;2.78;;;12.30;99.90;;;;;;5008414;28;20579;-78
2022/09/17 01:33:21;;;;;;;11.85;2.30;;;12.30;99.90;;;;;;4920533;29;20035;-78
2022/09/17 01:35:56;;;;;;;18.38;2.67;;;12.30;99.90;;;;;;5003420;28;20108;-79
2022/09/17 01:38:31;;;;;;;17.80;2.88;;;12.30;99.90;;;;;;5003104;28;20502;-80
2022/09/17 01:41:15;;;;;;;18.83;4.10;;;12.30;99.90;;;;;;4988826;28;20104;-78
2022/09/17 01:43:47;;;;;;;22.10;2.70;;;12.30;99.90;;;;;;4988713;28;20111;-78
2022/09/17 01:46:32;;;;;;;16.40;2.75;;;12.30;99.90;;;;;;4993306;28;20120;-78
2022/09/17 01:49:01;;;;;;;20.02;2.80;;;12.30;99.90;;;;;;4986270;28;20048;-79
2022/09/17 01:51:35;;;;;;;16.67;4.00;;;12.30;99.90;;;;;;5004951;28;20037;-79
2022/09/17 01:54:15;;;;;;;11.75;2.30;;;12.30;99.90;;;;;;5007530;28;20041;-78
2022/09/17 01:56:51;;;;;;;14.15;2.70;;;12.20;99.90;;;;;;5001404;28;20378;-78
2022/09/17 01:59:28;;;;;;;15.75;2.35;;;12.20;99.90;;;;;;5008637;28;20053;-79
2022/09/17 02:02:01;;;;;;;12.50;2.63;;;12.10;99.90;;;;;;5005945;28;20053;-79
2022/09/17 02:04:47;;;;;;;14.52;2.78;;;12.10;99.90;;;;;;5003972;28;20565;-78
2022/09/17 02:07:21;;;;;;;15.70;3.35;;;12.10;99.90;;;;;;5000297;28;20298;-78
2022/09/17 02:10:11;;;;;;;16.58;3.08;;;12.10;99.90;;;;;;4974758;28;20034;-78
2022/09/17 02:12:41;;;;;;;15.90;2.17;;;12.10;99.90;;;;;;5003085;28;20041;-78
2022/09/17 02:15:14;;;;;;;15.55;2.10;;;12.00;99.90;;;;;;4998419;28;20073;-78
2022/09/17 02:18:03;;;;;;;20.83;2.87;;;11.90;99.90;;;;;;5006400;28;20053;-79
2022/09/17 02:20:42;;;;;;;11.18;2.53;;;11.80;99.90;;;;;;4989443;28;20320;-78
2022/09/17 02:23:15;;;;;;;14.35;2.20;;;11.80;99.90;;;;;;5008900;28;20049;-77
2022/09/17 02:25:50;;;;;;;11.68;2.78;;;11.70;99.90;;;;;;5025185;28;20116;-77
2022/09/17 02:28:29;;;;;;;15.77;2.40;;;11.70;99.90;;;;;;4994356;28;20190;-79
2022/09/17 02:30:55;;;;;;;15.20;2.65;;;11.70;99.90;;;;;;5014021;28;20267;-79
2022/09/17 02:33:22;;;;;;;15.15;2.22;;;11.60;99.90;;;;;;4984483;28;20105;-78
2022/09/17 02:35:47;;;;;;;10.13;2.40;;;11.60;99.90;;;;;;4986148;28;20049;-77
2022/09/17 02:38:21;;;;;;;16.65;2.15;;;11.60;99.90;;;;;;4958348;28;20090;-78
2022/09/17 02:40:57;;;;;;;13.68;2.42;;;11.70;99.90;;;;;;5008816;28;20129;-77
2022/09/17 02:43:32;;;;;;;10.25;2.50;;;11.70;99.90;;;;;;5002012;28;20552;-78
2022/09/17 02:46:01;;;;;;;9.10;1.75;;;11.70;99.90;;;;;;5008935;28;20041;-77
2022/09/17 02:48:33;;;;;;;13.52;2.53;;;11.70;99.90;;;;;;5009664;28;20048;-77
2022/09/17 02:51:41;;;;;;;10.05;2.22;;;11.80;99.90;;;;;;4993331;28;20049;-78
2022/09/17 02:54:27;;;;;;;17.70;3.13;;;11.80;99.90;;;;;;4970235;28;20108;-78
2022/09/17 02:57:15;;;;;;;13.45;2.65;;;11.90;99.90;;;;;;5003474;28;20034;-79
2022/09/17 03:00:23;;;;;;;11.80;3.00;;;11.90;99.90;;;;;;5007231;28;20306;-79
2022/09/17 03:03:12;;;;;;;13.82;2.28;;;11.90;99.90;;;;;;4995423;28;20052;-78
2022/09/17 03:05:41;;;;;;;15.55;2.72;;;11.90;99.90;;;;;;5009213;28;20112;-79
2022/09/17 03:08:08;;;;;;;11.90;2.50;;;12.00;99.90;;;;;;5012170;28;20042;-78
2022/09/17 03:10:34;;;;;;;13.23;2.50;;;12.00;99.90;;;;;;4994752;28;21715;-78
2022/09/17 03:13:00;;;;;;;15.35;3.05;;;12.00;99.90;;;;;;5010904;28;20042;-79
2022/09/17 03:15:27;;;;;;;14.35;2.55;;;12.00;99.90;;;;;;4984557;28;20049;-78
2022/09/17 03:17:52;;;;;;;12.80;2.88;;;12.00;99.90;;;;;;4991001;28;20042;-78
2022/09/17 03:20:18;;;;;;;11.82;2.47;;;12.00;99.90;;;;;;4976559;28;20033;-78
2022/09/17 03:22:44;;;;;;;9.85;2.03;;;12.00;99.90;;;;;;4976357;28;20042;-79
2022/09/17 03:25:10;;;;;;;9.43;1.80;;;11.90;99.90;;;;;;4994635;28;20038;-77
2022/09/17 03:27:36;;;;;;;13.90;1.90;;;11.90;99.90;;;;;;5007434;28;20069;-78
2022/09/17 03:30:02;;;;;;;10.48;1.88;;;11.90;99.90;;;;;;5000788;28;20095;-78
2022/09/17 03:32:28;;;;;;;7.00;1.63;;;11.90;99.90;;;;;;5009725;28;20061;-79
2022/09/17 03:34:54;;;;;;;14.63;2.00;;;11.90;99.90;;;;;;4991442;28;20116;-79
2022/09/17 03:37:20;;;;;;;8.70;2.38;;;11.80;99.90;;;;;;4986422;28;20714;-78
2022/09/17 03:39:46;;;;;;;10.73;2.22;;;11.80;99.90;;;;;;4990869;28;20030;-79
2022/09/17 03:42:12;;;;;;;14.48;2.17;;;11.80;99.90;;;;;;4975557;28;20031;-79
2022/09/17 03:44:38;;;;;;;9.90;2.78;;;11.70;99.90;;;;;;5029667;28;20052;-78
2022/09/17 03:47:03;;;;;;;14.20;2.50;;;11.90;99.90;;;;;;5026353;28;20333;-78
2022/09/17 03:49:29;;;;;;;13.95;2.33;;;11.70;99.90;;;;;;4981302;28;20391;-78
2022/09/17 03:51:55;;;;;;;10.35;2.00;;;11.70;99.90;;;;;;5008070;28;20057;-79
2022/09/17 03:54:21;;;;;;;12.88;2.35;;;11.70;99.90;;;;;;4979072;28;20042;-78
2022/09/17 03:56:46;;;;;;;12.23;2.28;;;11.70;99.90;;;;;;5003147;28;20493;-78
2022/09/17 03:59:12;;;;;;;11.93;2.30;;;11.70;99.90;;;;;;5006695;28;20046;-78
2022/09/17 04:01:38;;;;;;;13.55;2.75;;;11.70;99.90;;;;;;4982920;28;20045;-78
2022/09/17 04:04:04;;;;;;;16.88;2.47;;;11.80;99.90;;;;;;4998297;28;20059;-78
2022/09/17 04:06:30;;;;;;;13.15;2.60;;;11.70;99.90;;;;;;5008574;28;20038;-78
2022/09/17 04:08:55;;;;;;;13.07;2.65;;;11.70;99.90;;;;;;4993753;28;20038;-78
2022/09/17 04:11:21;;;;;;;12.13;2.35;;;11.60;99.90;;;;;;4973589;28;20033;-78
2022/09/17 04:13:47;;;;;;;12.55;2.35;;;11.60;99.90;;;;;;4988477;28;20030;-78
2022/09/17 04:16:13;;;;;;;12.85;2.10;;;11.60;99.90;;;;;;4990689;28;20454;-79
2022/09/17 04:18:39;;;;;;;11.98;2.22;;;11.70;99.90;;;;;;4985892;28;20038;-79
2022/09/17 04:21:05;;;;;;;9.80;2.55;;;11.60;99.90;;;;;;4988473;28;20042;-78
2022/09/17 04:23:31;;;;;;;13.30;2.25;;;11.70;99.90;;;;;;5015841;28;20033;-78
2022/09/17 04:25:56;;;;;;;9.65;1.77;;;11.60;99.90;;;;;;5005660;28;20041;-78
2022/09/17 04:28:22;;;;;;;11.98;1.88;;;11.50;99.90;;;;;;4972419;28;20046;-78
2022/09/17 04:30:48;;;;;;;11.20;1.75;;;11.50;99.90;;;;;;5011582;28;20045;-78
2022/09/17 04:33:14;;;;;;;7.05;1.45;;;11.50;99.90;;;;;;4983898;28;20571;-78
2022/09/17 04:35:40;;;;;;;7.70;1.60;;;11.40;99.90;;;;;;5001048;28;20053;-79
2022/09/17 04:38:06;;;;;;;10.18;1.52;;;11.40;99.90;;;;;;4991771;28;20045;-78
2022/09/17 04:40:31;;;;;;;8.75;1.42;;;11.40;99.90;;;;;;4959674;28;20038;-78
2022/09/17 04:42:58;;;;;;;8.88;2.00;;;11.50;99.90;;;;;;4977860;28;20049;-76
2022/09/17 04:45:25;;;;;;;16.80;2.88;;;11.40;99.90;;;;;;4978787;28;20046;-77
2022/09/17 04:47:51;;;;;;;6.75;1.70;;;11.40;99.90;;;;;;5008780;28;20080;-78
2022/09/17 04:50:17;;;;;;;13.38;1.63;;;11.30;99.90;;;;;;4979778;28;20069;-77
2022/09/17 04:52:44;;;;;;;8.35;1.88;;;11.30;99.90;;;;;;4989071;28;20065;-78
2022/09/17 04:55:10;;;;;;;10.95;1.90;;;11.20;99.90;;;;;;5006014;28;20200;-77
2022/09/17 04:57:37;;;;;;;12.45;1.73;;;11.10;99.90;;;;;;4995111;28;20071;-78
2022/09/17 05:00:06;;;;;;;7.05;1.35;;;11.00;99.90;;;;;;4975447;28;20072;-77
2022/09/17 05:02:32;;;;;;;15.75;2.47;;;10.90;99.90;;;;;;4996766;28;20095;-77
2022/09/17 05:04:58;;;;;;;12.60;1.58;;;10.90;99.90;;;;;;4988809;28;20045;-77
2022/09/17 05:07:24;;;;;;;15.68;2.50;;;10.90;99.90;;;;;;4989107;28;20045;-78
2022/09/17 05:09:50;;;;;;;14.95;3.22;;;10.90;99.90;;;;;;5004718;28;20034;-79
2022/09/17 05:12:15;;;;;;;10.93;2.03;;;11.00;99.90;;;;;;5008830;28;20401;-79
2022/09/17 05:14:41;;;;;;;13.07;2.83;;;11.10;99.90;;;;;;5011108;28;20034;-80
2022/09/17 05:17:07;;;;;;;8.75;2.00;;;11.10;99.90;;;;;;4991981;28;20179;-77
2022/09/17 05:19:32;;;;;;;8.35;1.83;;;11.20;99.90;;;;;;4993301;28;20044;-78
2022/09/17 05:21:58;;;;;;;6.10;1.30;;;11.30;99.90;;;;;;4997994;28;20045;-78
2022/09/17 05:24:24;;;;;;;12.30;1.77;;;11.30;99.90;;;;;;4985224;28;20074;-78
2022/09/17 05:26:49;;;;;;;14.70;2.00;;;11.30;99.90;;;;;;4993564;28;20128;-77
2022/09/17 05:29:15;;;;;;;13.00;2.10;;;11.30;99.90;;;;;;4989091;28;20064;-78
2022/09/17 05:31:41;;;;;;;11.45;2.00;;;11.30;99.90;;;;;;4982454;28;20096;-77
2022/09/17 05:34:07;;;;;;;6.07;1.70;;;11.30;99.90;;;;;;4970526;28;20049;-78
2022/09/17 05:36:33;;;;;;;13.23;2.30;;;11.30;99.90;;;;;;4986173;28;20520;-78
2022/09/17 05:38:59;;;;;;;8.23;1.30;;;11.30;99.90;;;;;;4975821;28;20099;-78
2022/09/17 05:41:24;;;;;;;11.32;2.00;;;11.40;99.90;;;;;;4997483;28;20085;-77
2022/09/17 05:43:50;;;;;;;13.75;1.63;;;11.30;99.90;;;;;;5001173;28;20113;-79
2022/09/17 05:46:16;;;;;;;10.55;1.90;;;11.30;99.90;;;;;;4988880;28;20049;-78
2022/09/17 05:48:42;;;;;;;10.55;1.48;;;11.30;99.90;;;;;;5009637;28;20042;-77
2022/09/17 05:51:08;;;;;;;6.82;1.45;;;11.40;99.90;;;;;;4955452;28;20049;-80
2022/09/17 05:53:34;;;;;;;6.53;1.10;;;11.30;99.90;;;;;;4990568;28;20037;-77
2022/09/17 05:55:59;;;;;;;9.77;2.08;;;11.30;99.90;;;;;;4995618;28;20049;-78
2022/09/17 05:58:26;;;;;;;10.80;1.38;;;11.30;99.90;;;;;;4992452;28;20525;-78
2022/09/17 06:00:51;;;;;;;8.00;1.73;;;11.40;99.90;;;;;;4998503;28;20042;-78
2022/09/17 06:03:19;;;;;;;7.32;1.38;;;11.60;99.90;;;;;;4996312;28;20099;-79
2022/09/17 06:05:57;;;;;;;7.20;1.45;;;11.30;99.90;;;;;;5004301;28;20069;-81
2022/09/17 06:08:23;;;;;;;9.75;1.83;;;11.30;99.90;;;;;;5004467;28;20038;-78
2022/09/17 06:10:49;;;;;;;10.88;1.77;;;11.30;99.90;;;;;;5002313;28;20049;-79
2022/09/17 06:13:16;;;;;;;9.45;1.40;;;11.30;99.90;;;;;;4997792;28;20037;-79
2022/09/17 06:15:48;;;;;;;9.48;1.50;;;11.30;99.90;;;;;;4970861;28;20045;-79
2022/09/17 06:18:13;;;;;;;8.10;1.52;;;11.40;99.90;;;;;;4988028;28;20046;-79
2022/09/17 06:20:39;;;;;;;8.40;2.17;;;11.40;99.90;;;;;;4990033;28;20879;-80
2022/09/17 06:23:04;;;;;;;10.35;1.90;;;11.40;99.90;;;;;;5003532;28;20049;-79
2022/09/17 06:25:30;;;;;;;10.20;1.63;;;11.40;99.90;;;;;;5005902;28;20065;-79
2022/09/17 06:27:56;;;;;;;11.52;1.60;;;11.40;99.90;;;;;;4985335;28;20397;-78
2022/09/17 06:30:22;;;;;;;8.48;1.63;;;11.50;99.90;;;;;;4984550;28;20495;-79
2022/09/17 06:32:47;;;;;;;8.50;1.50;;;11.60;99.90;;;;;;5002180;28;20049;-79
2022/09/17 06:35:13;;;;;;;9.88;1.95;;;11.70;99.90;;;;;;4998919;28;20038;-79
2022/09/17 06:37:39;;;;;;;10.50;1.92;;;11.70;99.90;;;;;;5002468;28;20053;-79
2022/09/17 06:40:06;;;;;;;8.10;1.75;;;11.70;99.90;;;;;;4986227;28;20084;-79
2022/09/17 06:42:32;;;;;;;16.00;2.40;;;11.80;99.90;;;;;;4999147;28;20474;-79
2022/09/17 06:44:58;;;;;;;13.07;1.88;;;11.90;99.90;;;;;;5001795;28;20042;-79
2022/09/17 06:47:24;;;;;;;8.05;1.00;;;12.10;99.90;;;;;;5010644;28;20045;-78
2022/09/17 06:49:50;;;;;;;13.73;1.55;;;12.20;99.90;;;;;;4995820;28;20034;-79
2022/09/17 06:52:16;;;;;;;11.63;1.63;;;12.40;99.90;;;;;;4980568;28;20068;-79
2022/09/17 06:54:42;;;;;;;9.40;1.52;;;12.60;99.90;;;;;;4984788;28;20049;-79
2022/09/17 06:57:08;;;;;;;7.85;1.52;;;12.60;99.90;;;;;;4983087;28;20419;-79
2022/09/17 06:59:33;;;;;;;10.35;1.60;;;12.70;99.90;;;;;;5003200;28;20064;-79
2022/09/17 07:01:59;;;;;;;6.20;1.10;;;12.70;99.90;;;;;;4980085;28;20092;-80
2022/09/17 07:04:24;;;;;;;9.75;1.60;;;12.70;99.90;;;;;;4963404;28;20406;-80
2022/09/17 07:06:50;;;;;;;6.68;1.58;;;12.60;99.90;;;;;;4996070;28;20429;-79
2022/09/17 07:09:16;;;;;;;9.50;1.65;;;12.50;99.90;;;;;;4977529;28;20038;-79
2022/09/17 07:11:42;;;;;;;10.25;2.45;;;12.60;99.90;;;;;;4989311;28;20042;-79
2022/09/17 07:14:07;;;;;;;5.95;1.10;;;12.80;99.90;;;;;;5013300;28;20465;-79
2022/09/17 07:16:36;;;;;;;6.15;1.75;;;13.00;99.90;;;;;;4996139;28;20038;-80
2022/09/17 07:19:03;;;;;;;8.60;1.10;;;13.10;99.90;;;;;;5010084;28;20046;-79
2022/09/17 07:21:29;;;;;;;9.15;1.55;;;13.10;99.90;;;;;;5004807;28;20043;-79
2022/09/17 07:23:58;;;;;;;5.97;1.40;;;12.90;99.90;;;;;;4998211;28;20618;-78
2022/09/17 07:26:24;;;;;;;6.50;1.20;;;12.50;99.90;;;;;;4989333;28;20552;-79
2022/09/17 07:28:50;;;;;;;5.70;1.23;;;12.30;99.90;;;;;;4996133;28;20121;-80
2022/09/17 07:31:15;;;;;;;6.97;1.83;;;12.10;99.90;;;;;;4995184;28;20076;-79
2022/09/17 07:33:41;;;;;;;7.15;1.30;;;12.00;99.90;;;;;;4975789;28;20058;-79
2022/09/17 07:36:10;;;;;;;6.50;1.30;;;12.00;99.90;;;;;;4999439;28;20052;-80
2022/09/17 07:38:36;;;;;;;8.10;1.67;;;12.00;99.90;;;;;;5009925;28;20099;-79
2022/09/17 07:41:12;;;;;;;7.57;1.20;;;12.10;99.90;;;;;;5006365;28;20041;-79
2022/09/17 07:43:38;;;;;;;8.02;1.63;;;12.10;99.90;;;;;;5010471;28;20093;-79
2022/09/17 07:46:05;;;;;;;11.07;2.17;;;12.20;99.90;;;;;;4982283;28;20466;-79
2022/09/17 07:48:31;;;;;;;7.15;1.33;;;12.10;99.90;;;;;;4996750;28;20497;-79
2022/09/17 07:50:57;;;;;;;5.97;1.70;;;12.10;99.90;;;;;;4996583;28;20042;-80
2022/09/17 07:53:23;;;;;;;9.27;1.45;;;12.00;99.90;;;;;;5008654;28;20037;-79
2022/09/17 07:55:56;;;;;;;10.48;1.90;;;12.10;99.90;;;;;;5013286;28;20107;-80
2022/09/17 07:58:33;;;;;;;12.50;1.73;;;12.20;99.90;;;;;;5014377;28;20072;-80
2022/09/17 08:01:22;;;;;;;11.25;1.63;;;12.30;99.90;;;;;;4996239;28;20124;-80
2022/09/17 08:03:50;;;;;;;10.02;1.60;;;12.40;99.90;;;;;;4998643;28;20764;-80
2022/09/17 08:06:22;;;;;;;11.98;1.80;;;12.60;99.90;;;;;;4975599;28;20401;-80
2022/09/17 08:08:49;;;;;;;12.95;1.73;;;12.80;99.90;;;;;;5008850;28;20576;-80
2022/09/17 08:11:17;;;;;;;7.40;1.30;;;12.90;99.90;;;;;;4990382;28;20042;-79
2022/09/17 08:13:50;;;;;;;14.30;1.83;;;12.90;99.90;;;;;;5015386;28;20153;-79
2022/09/17 08:16:17;;;;;;;7.95;1.70;;;13.50;99.90;;;;;;4993195;28;20038;-78
2022/09/17 08:18:44;;;;;;;6.82;1.05;;;12.60;99.90;;;;;;5006330;28;20045;-77
2022/09/17 08:21:15;;;;;;;8.73;1.58;;;12.30;99.90;;;;;;4989885;28;20046;-79
2022/09/17 08:23:44;;;;;;;6.03;1.02;;;11.90;99.90;;;;;;4985110;28;20049;-77
2022/09/17 08:26:16;;;;;;;7.38;1.63;;;11.70;99.90;;;;;;4989580;28;20033;-78
2022/09/17 08:28:47;;;;;;;7.88;1.10;;;11.70;99.90;;;;;;5010176;28;20034;-78
2022/09/17 08:31:14;;;;;;;4.00;1.10;;;11.70;99.90;;;;;;5000488;28;20049;-78
2022/09/17 08:33:40;;;;;;;6.97;1.33;;;11.80;99.90;;;;;;5002604;28;20113;-78
2022/09/17 08:36:09;;;;;;;9.02;1.83;;;11.90;99.90;;;;;;5005114;28;20529;-79
2022/09/17 08:38:38;;;;;;;10.20;2.58;;;12.10;99.90;;;;;;4994909;28;20042;-80
2022/09/17 08:41:04;;;;;;;7.28;1.40;;;12.30;99.90;;;;;;4993850;28;20040;-79
2022/09/17 08:43:32;;;;;;;11.98;1.92;;;12.60;99.90;;;;;;4971548;28;20045;-80
2022/09/17 08:45:59;;;;;;;13.43;2.88;;;12.80;99.90;;;;;;4989781;28;20041;-79
2022/09/17 08:48:35;;;;;;;9.20;1.88;;;13.00;99.90;;;;;;4980208;28;20053;-79
2022/09/17 08:51:11;;;;;;;14.85;2.60;;;13.20;99.90;;;;;;5007131;28;20029;-79
2022/09/17 08:53:55;;;;;;;11.65;2.15;;;13.50;99.90;;;;;;4918925;28;20042;-79
2022/09/17 08:56:22;;;;;;;11.93;1.75;;;13.60;99.90;;;;;;4949682;28;69661;-79
2022/09/17 08:59:13;;;;;;;11.15;2.05;;;13.60;99.90;;;;;;4955085;28;20055;-80
2022/09/17 09:02:05;;;;;;;7.07;1.42;;;13.20;99.90;;;;;;4978166;28;20125;-80
2022/09/17 09:04:38;;;;;;;6.05;1.10;;;12.70;99.90;;;;;;4974170;28;20076;-80
2022/09/17 09:07:14;;;;;;;3.90;1.47;;;12.50;99.90;;;;;;4971736;28;20576;-78
2022/09/17 09:09:50;;;;;;;2.88;0.50;;;12.40;99.90;;;;;;4973227;28;20100;-79
2022/09/17 09:12:24;;;;;;;3.00;0.95;;;12.30;99.90;;;;;;4989740;28;20038;-80
2022/09/17 09:14:57;;;;;;;7.03;0.90;;;12.30;99.90;;;;;;4974315;28;20121;-78
2022/09/17 09:17:27;;;;;;;6.35;1.35;;;12.30;99.90;;;;;;4990856;28;20038;-80
2022/09/17 09:19:55;;;;;;;5.93;1.08;;;12.40;99.90;;;;;;4966010;28;20594;-79
2022/09/17 09:22:35;;;;;;;4.80;0.98;;;12.40;99.90;;;;;;4920277;28;28625;-78
2022/09/17 09:25:22;;;;;;;11.07;1.40;;;12.40;99.90;;;;;;4992449;28;20034;-79
2022/09/17 09:28:04;;;;;;;5.97;1.10;;;12.20;99.90;;;;;;4990643;28;20042;-79
2022/09/17 09:30:58;;;;;;;11.40;2.40;;;12.10;99.90;;;;;;4976485;28;20085;-79
2022/09/17 09:33:32;;;;;;;10.15;2.03;;;12.10;99.90;;;;;;4990237;28;20043;-79
2022/09/17 09:35:58;;;;;;;9.18;1.55;;;12.10;99.90;;;;;;4991823;28;20044;-79
2022/09/17 09:38:33;;;;;;;9.73;1.67;;;12.30;99.90;;;;;;4987455;28;20242;-79
2022/09/17 09:41:07;;;;;;;10.43;2.30;;;12.60;99.90;;;;;;5004685;28;20042;-79
2022/09/17 09:43:50;;;;;;;10.60;1.90;;;12.80;99.90;;;;;;5007035;28;20046;-80
2022/09/17 09:46:44;;;;;;;9.02;1.67;;;13.10;99.90;;;;;;4966933;28;20057;-80
2022/09/17 09:49:39;;;;;;;11.70;1.77;;;13.30;99.90;;;;;;4991199;28;20042;-80
2022/09/17 09:52:11;;;;;;;11.43;2.20;;;13.40;99.90;;;;;;4976219;28;20073;-80
2022/09/17 09:54:49;;;;;;;6.72;2.00;;;13.40;99.90;;;;;;5005913;28;20042;-79
2022/09/17 09:57:18;;;;;;;13.13;1.90;;;13.50;99.90;;;;;;4976722;28;20523;-80
2022/09/17 09:59:43;;;;;;;10.65;1.98;;;13.60;99.90;;;;;;4993352;28;20058;-80
2022/09/17 10:02:10;;;;;;;12.93;3.42;;;13.60;99.90;;;;;;4991845;28;20043;-81
2022/09/17 10:04:36;;;;;;;11.25;2.30;;;13.70;99.90;;;;;;4994890;28;20038;-79
2022/09/17 10:07:10;;;;;;;10.43;2.15;;;13.80;99.90;;;;;;4962175;28;20100;-80
2022/09/17 10:09:38;;;;;;;8.95;1.88;;;13.80;99.90;;;;;;4960744;28;20057;-80
2022/09/17 10:12:10;;;;;;;9.48;1.55;;;14.00;99.90;;;;;;4990429;28;20050;-80
2022/09/17 10:14:44;;;;;;;12.02;2.08;;;14.20;99.90;;;;;;4976983;28;20047;-79
2022/09/17 10:17:14;;;;;;;9.57;1.42;;;14.40;99.90;;;;;;4976289;28;20085;-79
2022/09/17 10:19:40;;;;;;;8.82;1.65;;;14.40;99.90;;;;;;4991901;28;20541;-79
2022/09/17 10:22:29;;;;;;;8.77;1.38;;;14.30;99.90;;;;;;4998980;28;20438;-79
2022/09/17 10:24:56;;;;;;;7.60;1.30;;;13.90;99.90;;;;;;4989165;28;20042;-79
2022/09/17 10:27:25;;;;;;;7.47;1.40;;;13.80;99.90;;;;;;4992641;28;20045;-80
2022/09/17 10:30:16;;;;;;;7.80;1.90;;;13.90;99.90;;;;;;4974082;28;20157;-82
2022/09/17 10:32:42;;;;;;;10.07;1.52;;;13.80;99.90;;;;;;4992306;28;20169;-81
2022/09/17 10:35:14;;;;;;;11.60;1.35;;;13.90;99.90;;;;;;4975146;28;20577;-80
2022/09/17 10:37:46;;;;;;;3.95;1.00;;;14.10;99.90;;;;;;4992444;28;20526;-79
2022/09/17 10:40:18;;;;;;;7.32;1.10;;;14.30;99.90;;;;;;4973828;28;20046;-82
2022/09/17 10:42:48;;;;;;;6.95;1.30;;;14.40;99.90;;;;;;4987879;28;20053;-81
2022/09/17 10:45:28;;;;;;;10.43;1.95;;;14.40;99.90;;;;;;4954782;28;20293;-82
2022/09/17 10:47:55;;;;;;;12.35;3.15;;;14.40;99.90;;;;;;4975472;28;20066;-82
2022/09/17 10:50:34;;;;;;;10.55;2.15;;;14.30;99.90;;;;;;4973809;28;20034;-83
2022/09/17 10:53:14;;;;;;;12.40;2.53;;;14.10;99.90;;;;;;4969929;28;20039;-80
2022/09/17 10:56:01;;;;;;;10.82;2.60;;;13.80;99.90;;;;;;4983069;28;20050;-80
2022/09/17 10:58:33;;;;;;;8.63;1.30;;;12.90;99.90;;;;;;4979426;28;20137;-80
2022/09/17 11:01:09;;;;;;;10.15;2.15;;;12.60;99.90;;;;;;4986491;28;20042;-81
2022/09/17 11:04:12;;;;;;;8.48;1.58;;;12.30;99.90;;;;;;4987964;28;20042;-78
2022/09/17 11:06:47;;;;;;;4.68;1.42;;;12.20;99.90;;;;;;4968620;28;20070;-78
2022/09/17 11:09:25;;;;;;;10.88;4.68;;;12.40;99.90;;;;;;4971250;28;20038;-79
2022/09/17 11:12:13;;;;;;;8.90;1.63;;;12.70;99.90;;;;;;4989578;28;20494;-80
2022/09/17 11:14:54;;;;;;;11.20;3.20;;;13.00;99.90;;;;;;4986698;28;21015;-79
2022/09/17 11:17:49;;;;;;;10.23;3.78;;;13.40;99.90;;;;;;5001333;28;20232;-79
2022/09/17 11:20:33;;;;;;;12.98;2.22;;;13.80;99.90;;;;;;5006685;28;20053;-79
2022/09/17 11:23:01;;;;;;;;;;;13.90;99.90;;;;;;4989328;28;20503;-79
2022/09/17 11:25:39;;;;;;;14.50;2.47;;;13.80;99.90;;;;;;4987984;28;19931;-79
2022/09/17 11:28:30;;;;;;;12.30;2.15;;;13.60;99.90;;;;;;4985155;28;20064;-80
2022/09/17 11:31:14;;;;;;;15.60;2.97;;;13.50;99.90;;;;;;4988176;28;20050;-80
2022/09/17 11:34:21;;;;;;;15.10;2.85;;;13.30;99.90;;;;;;5002744;28;20128;-79
2022/09/17 11:36:55;;;;;;;16.30;2.38;;;13.40;99.90;;;;;;4959058;28;20042;-79
2022/09/17 11:39:38;;;;;;;11.80;2.50;;;13.50;99.90;;;;;;4987287;28;20046;-79
2022/09/17 11:42:17;;;;;;;11.65;2.60;;;13.60;99.90;;;;;;5001932;28;20038;-80
2022/09/17 11:44:56;;;;;;;11.35;2.88;;;13.40;99.90;;;;;;4983328;28;20525;-79
2022/09/17 11:47:29;;;;;;;17.02;3.03;;;13.30;99.90;;;;;;4992733;28;20541;-78
2022/09/17 11:50:18;;;;;;;16.35;2.80;;;13.20;99.90;;;;;;4981970;28;20034;-79
2022/09/17 11:52:57;;;;;;;10.18;2.00;;;13.30;99.90;;;;;;4991953;28;20132;-78
2022/09/17 11:55:45;;;;;;;15.85;2.35;;;13.50;99.90;;;;;;4972512;28;20030;-79
2022/09/17 11:58:27;;;;;;;13.85;2.67;;;13.90;99.90;;;;;;4963587;28;20135;-79
2022/09/17 12:01:01;;;;;;;16.27;2.83;;;14.20;99.90;;;;;;4990060;28;20049;-78
2022/09/17 12:03:35;;;;;;;15.57;2.75;;;14.50;99.90;;;;;;4992578;28;20082;-78
2022/09/17 12:06:09;;;;;;;10.55;2.20;;;14.80;99.90;;;;;;4977040;28;20074;-80
2022/09/17 12:08:59;;;;;;;13.48;2.38;;;15.10;99.90;;;;;;4990566;28;20121;-78
2022/09/17 12:11:35;;;;;;;15.88;2.85;;;15.30;99.90;;;;;;4980424;28;20046;-80
2022/09/17 12:14:10;;;;;;;13.40;2.58;;;15.50;99.90;;;;;;4991876;28;20042;-78
2022/09/17 12:16:41;;;;;;;17.67;3.65;;;15.70;99.60;;;;;;4985142;28;20125;-79
2022/09/17 12:19:39;;;;;;;8.27;1.55;;;15.90;99.60;;;;;;4970417;28;20042;-79
2022/09/17 12:22:08;;;;;;;8.13;2.03;;;15.50;99.00;;;;;;4982948;28;20034;-80
2022/09/17 12:24:34;;;;;;;12.18;1.95;;;15.00;99.90;;;;;;4974640;28;20084;-80
2022/09/17 12:27:18;;;;;;;13.35;2.17;;;14.70;99.90;;;;;;4992475;28;20038;-78
2022/09/17 12:30:09;;;;;;;9.93;2.42;;;14.40;99.90;;;;;;4990496;28;20570;-80
2022/09/17 12:33:21;;;;;;;10.30;2.38;;;14.50;99.90;;;;;;4988202;28;20051;-80
2022/09/17 12:36:18;;;;;;;16.05;2.75;;;14.60;99.90;;;;;;4976334;28;20097;-78
2022/09/17 12:38:57;;;;;;;13.63;2.42;;;14.60;99.90;;;;;;4989190;28;20117;-80
2022/09/17 12:41:45;;;;;;;16.45;2.60;;;15.00;99.90;;;;;;4975509;28;20603;-80
2022/09/17 12:44:48;;;;;;;15.40;3.03;;;15.20;99.60;;;;;;5002490;28;20526;-80
2022/09/17 12:47:54;;;;;;;13.23;2.78;;;15.50;99.70;;;;;;4973171;28;20047;-80
2022/09/17 12:50:29;;;;;;;9.70;1.80;;;15.60;99.40;;;;;;4989722;28;20130;-80
2022/09/17 12:53:01;;;;;;;8.65;1.90;;;15.40;97.50;;;;;;4994151;28;20494;-79
2022/09/17 12:56:01;;;;;;;11.25;2.60;;;15.20;97.50;;;;;;4988983;28;20048;-79
2022/09/17 12:58:57;;;;;;;12.75;2.40;;;15.20;98.40;;;;;;4990751;28;20422;-78
2022/09/17 13:01:32;;;;;;;12.52;2.90;;;15.60;98.60;;;;;;4980117;28;20293;-79
2022/09/17 13:04:27;;;;;;;15.48;3.28;;;15.60;98.10;;;;;;4985533;28;20084;-78
2022/09/17 13:07:19;;;;;;;14.45;3.08;;;15.70;98.00;;;;;;4989881;28;20061;-80
2022/09/17 13:10:07;;;;;;;12.20;2.88;;;15.90;97.80;;;;;;5006587;28;20045;-80